Terminal Aerodrome Forecast
Issued by NWS

Home | Current Version | Previous Version | Text Only | Print | Product List | Glossary On
Versions: 1 2 3 4 5 6 7 8 9 10 11 12 13 14 15 16 17
000
FTUS45 KGJT 240539
TAFEGE
TAF
KEGE 240539Z 2406/2506 VRB04KT P6SM -RA VCSH FEW045 OVC060
     FM240800 24006KT P6SM VCSH BKN030
     FM241200 27006KT P6SM BKN050
     FM241500 25006KT P6SM BKN070
     FM241700 27005KT P6SM SCT080
     FM250200 VRB04KT P6SM FEW250
      AMD LTD TO CLD VIS AND WIND TIL 241300=

USA.gov is the U.S. government's official web portal to all federal, state and local government web resources and services.